sensor_id;sensor_type;location;lat;lon;timestamp;P1;durP1;ratioP1;P2;durP2;ratioP2
17864;SDS011;9058;52.018;4.202;2022-11-15T00:01:31;207.65;;;51.22;;
17864;SDS011;9058;52.018;4.202;2022-11-15T00:03:59;232.80;;;54.75;;
17864;SDS011;9058;52.018;4.202;2022-11-15T00:06:25;227.35;;;53.60;;
17864;SDS011;9058;52.018;4.202;2022-11-15T00:08:51;201.73;;;53.50;;
17864;SDS011;9058;52.018;4.202;2022-11-15T00:11:18;211.85;;;53.28;;
17864;SDS011;9058;52.018;4.202;2022-11-15T00:13:44;214.98;;;53.45;;
17864;SDS011;9058;52.018;4.202;2022-11-15T00:16:10;208.95;;;54.53;;
17864;SDS011;9058;52.018;4.202;2022-11-15T00:18:37;226.70;;;53.38;;
17864;SDS011;9058;52.018;4.202;2022-11-15T00:21:05;192.20;;;50.75;;
17864;SDS011;9058;52.018;4.202;2022-11-15T00:23:32;192.02;;;53.30;;
17864;SDS011;9058;52.018;4.202;2022-11-15T00:25:58;194.18;;;53.05;;
17864;SDS011;9058;52.018;4.202;2022-11-15T00:28:25;198.55;;;53.15;;
17864;SDS011;9058;52.018;4.202;2022-11-15T00:30:51;196.60;;;54.40;;
17864;SDS011;9058;52.018;4.202;2022-11-15T00:33:17;172.05;;;51.63;;
17864;SDS011;9058;52.018;4.202;2022-11-15T00:35:44;183.02;;;50.58;;
17864;SDS011;9058;52.018;4.202;2022-11-15T00:38:11;187.77;;;50.72;;
17864;SDS011;9058;52.018;4.202;2022-11-15T00:40:39;160.85;;;48.85;;
17864;SDS011;9058;52.018;4.202;2022-11-15T00:43:05;173.15;;;51.55;;
17864;SDS011;9058;52.018;4.202;2022-11-15T00:45:32;175.63;;;51.40;;
17864;SDS011;9058;52.018;4.202;2022-11-15T00:47:58;169.60;;;49.95;;
17864;SDS011;9058;52.018;4.202;2022-11-15T00:50:24;164.95;;;51.50;;
17864;SDS011;9058;52.018;4.202;2022-11-15T00:52:50;149.65;;;49.83;;
17864;SDS011;9058;52.018;4.202;2022-11-15T00:55:18;157.05;;;48.35;;
17864;SDS011;9058;52.018;4.202;2022-11-15T00:57:45;157.75;;;50.38;;
17864;SDS011;9058;52.018;4.202;2022-11-15T01:00:12;147.75;;;52.13;;
17864;SDS011;9058;52.018;4.202;2022-11-15T01:02:41;133.68;;;49.55;;
17864;SDS011;9058;52.018;4.202;2022-11-15T01:05:07;157.50;;;51.00;;
17864;SDS011;9058;52.018;4.202;2022-11-15T01:07:33;142.60;;;50.17;;
17864;SDS011;9058;52.018;4.202;2022-11-15T01:10:00;145.82;;;54.08;;
17864;SDS011;9058;52.018;4.202;2022-11-15T01:12:28;132.82;;;51.30;;
17864;SDS011;9058;52.018;4.202;2022-11-15T01:14:55;140.15;;;50.28;;
17864;SDS011;9058;52.018;4.202;2022-11-15T01:17:21;152.80;;;50.65;;
17864;SDS011;9058;52.018;4.202;2022-11-15T01:19:47;139.90;;;51.83;;
17864;SDS011;9058;52.018;4.202;2022-11-15T01:22:14;143.73;;;51.67;;
17864;SDS011;9058;52.018;4.202;2022-11-15T01:24:40;140.95;;;53.33;;
17864;SDS011;9058;52.018;4.202;2022-11-15T01:27:06;133.80;;;51.40;;
17864;SDS011;9058;52.018;4.202;2022-11-15T01:29:34;140.00;;;54.17;;
17864;SDS011;9058;52.018;4.202;2022-11-15T01:32:00;142.35;;;55.17;;
17864;SDS011;9058;52.018;4.202;2022-11-15T01:34:27;130.32;;;52.38;;
17864;SDS011;9058;52.018;4.202;2022-11-15T01:36:53;146.52;;;56.50;;
17864;SDS011;9058;52.018;4.202;2022-11-15T01:39:19;145.05;;;54.10;;
17864;SDS011;9058;52.018;4.202;2022-11-15T01:41:46;140.50;;;53.65;;
17864;SDS011;9058;52.018;4.202;2022-11-15T01:46:58;146.95;;;53.33;;
17864;SDS011;9058;52.018;4.202;2022-11-15T01:49:25;147.68;;;54.58;;
17864;SDS011;9058;52.018;4.202;2022-11-15T01:51:53;135.52;;;53.15;;
17864;SDS011;9058;52.018;4.202;2022-11-15T01:54:20;138.90;;;55.45;;
17864;SDS011;9058;52.018;4.202;2022-11-15T01:56:48;138.07;;;52.08;;
17864;SDS011;9058;52.018;4.202;2022-11-15T01:59:17;137.55;;;54.05;;
17864;SDS011;9058;52.018;4.202;2022-11-15T02:01:44;145.05;;;55.30;;
17864;SDS011;9058;52.018;4.202;2022-11-15T02:04:12;147.32;;;55.95;;
17864;SDS011;9058;52.018;4.202;2022-11-15T02:06:39;138.35;;;55.00;;
17864;SDS011;9058;52.018;4.202;2022-11-15T02:09:06;158.60;;;58.25;;
17864;SDS011;9058;52.018;4.202;2022-11-15T02:11:32;139.02;;;56.35;;
17864;SDS011;9058;52.018;4.202;2022-11-15T02:13:59;140.30;;;56.33;;
17864;SDS011;9058;52.018;4.202;2022-11-15T02:16:27;139.90;;;56.25;;
17864;SDS011;9058;52.018;4.202;2022-11-15T02:18:56;140.68;;;56.78;;
17864;SDS011;9058;52.018;4.202;2022-11-15T02:21:26;135.60;;;55.58;;
17864;SDS011;9058;52.018;4.202;2022-11-15T02:24:01;133.45;;;54.33;;
17864;SDS011;9058;52.018;4.202;2022-11-15T02:26:45;125.15;;;54.90;;
17864;SDS011;9058;52.018;4.202;2022-11-15T02:29:18;127.95;;;53.95;;
17864;SDS011;9058;52.018;4.202;2022-11-15T02:31:48;121.95;;;55.53;;
17864;SDS011;9058;52.018;4.202;2022-11-15T02:34:17;115.97;;;51.60;;
17864;SDS011;9058;52.018;4.202;2022-11-15T02:36:48;123.20;;;53.00;;
17864;SDS011;9058;52.018;4.202;2022-11-15T02:39:18;112.97;;;51.63;;
17864;SDS011;9058;52.018;4.202;2022-11-15T02:41:46;122.68;;;55.97;;
17864;SDS011;9058;52.018;4.202;2022-11-15T02:44:14;105.85;;;52.03;;
17864;SDS011;9058;52.018;4.202;2022-11-15T02:46:43;110.90;;;52.83;;
17864;SDS011;9058;52.018;4.202;2022-11-15T02:49:31;104.88;;;50.40;;
17864;SDS011;9058;52.018;4.202;2022-11-15T02:51:58;107.85;;;52.42;;
17864;SDS011;9058;52.018;4.202;2022-11-15T02:54:25;104.45;;;53.00;;
17864;SDS011;9058;52.018;4.202;2022-11-15T02:56:53;97.82;;;52.33;;
17864;SDS011;9058;52.018;4.202;2022-11-15T02:59:31;96.03;;;53.85;;
17864;SDS011;9058;52.018;4.202;2022-11-15T03:02:07;90.40;;;50.22;;
17864;SDS011;9058;52.018;4.202;2022-11-15T03:04:40;84.22;;;47.60;;
17864;SDS011;9058;52.018;4.202;2022-11-15T03:07:10;87.90;;;48.13;;
17864;SDS011;9058;52.018;4.202;2022-11-15T03:09:39;77.18;;;46.30;;
17864;SDS011;9058;52.018;4.202;2022-11-15T03:12:08;71.57;;;43.03;;
17864;SDS011;9058;52.018;4.202;2022-11-15T03:14:37;63.58;;;40.65;;
17864;SDS011;9058;52.018;4.202;2022-11-15T03:17:07;73.55;;;44.35;;
17864;SDS011;9058;52.018;4.202;2022-11-15T03:19:40;64.70;;;40.38;;
17864;SDS011;9058;52.018;4.202;2022-11-15T03:22:09;65.38;;;40.78;;
17864;SDS011;9058;52.018;4.202;2022-11-15T03:24:36;67.82;;;38.55;;
17864;SDS011;9058;52.018;4.202;2022-11-15T03:27:03;57.00;;;39.42;;
17864;SDS011;9058;52.018;4.202;2022-11-15T03:29:32;56.42;;;36.95;;
17864;SDS011;9058;52.018;4.202;2022-11-15T03:32:00;58.90;;;34.85;;
17864;SDS011;9058;52.018;4.202;2022-11-15T03:34:29;51.63;;;33.53;;
17864;SDS011;9058;52.018;4.202;2022-11-15T03:36:59;46.45;;;27.20;;
17864;SDS011;9058;52.018;4.202;2022-11-15T03:39:25;45.70;;;29.83;;
17864;SDS011;9058;52.018;4.202;2022-11-15T03:41:55;40.35;;;27.27;;
17864;SDS011;9058;52.018;4.202;2022-11-15T03:44:26;47.22;;;26.73;;
17864;SDS011;9058;52.018;4.202;2022-11-15T03:46:57;39.03;;;26.70;;
17864;SDS011;9058;52.018;4.202;2022-11-15T03:49:24;37.30;;;26.23;;
17864;SDS011;9058;52.018;4.202;2022-11-15T03:51:51;37.55;;;23.80;;
17864;SDS011;9058;52.018;4.202;2022-11-15T03:54:20;38.45;;;25.45;;
17864;SDS011;9058;52.018;4.202;2022-11-15T03:56:46;38.10;;;23.48;;
17864;SDS011;9058;52.018;4.202;2022-11-15T03:59:12;34.40;;;21.67;;
17864;SDS011;9058;52.018;4.202;2022-11-15T04:01:40;31.40;;;19.83;;
17864;SDS011;9058;52.018;4.202;2022-11-15T04:04:06;29.15;;;20.33;;
17864;SDS011;9058;52.018;4.202;2022-11-15T04:06:32;27.73;;;19.50;;
17864;SDS011;9058;52.018;4.202;2022-11-15T04:08:59;28.38;;;18.27;;
17864;SDS011;9058;52.018;4.202;2022-11-15T04:11:26;27.80;;;17.75;;
17864;SDS011;9058;52.018;4.202;2022-11-15T04:13:52;26.13;;;17.58;;
17864;SDS011;9058;52.018;4.202;2022-11-15T04:16:19;29.75;;;17.00;;
17864;SDS011;9058;52.018;4.202;2022-11-15T04:18:45;28.10;;;17.38;;
17864;SDS011;9058;52.018;4.202;2022-11-15T04:21:32;24.80;;;16.63;;
17864;SDS011;9058;52.018;4.202;2022-11-15T04:24:16;26.27;;;16.65;;
17864;SDS011;9058;52.018;4.202;2022-11-15T04:26:44;24.45;;;16.85;;
17864;SDS011;9058;52.018;4.202;2022-11-15T04:29:10;27.23;;;16.35;;
17864;SDS011;9058;52.018;4.202;2022-11-15T04:31:54;21.48;;;12.73;;
17864;SDS011;9058;52.018;4.202;2022-11-15T04:34:20;22.50;;;15.63;;
17864;SDS011;9058;52.018;4.202;2022-11-15T04:36:47;22.15;;;14.95;;
17864;SDS011;9058;52.018;4.202;2022-11-15T04:39:31;21.58;;;13.85;;
17864;SDS011;9058;52.018;4.202;2022-11-15T04:41:58;21.05;;;13.80;;
17864;SDS011;9058;52.018;4.202;2022-11-15T04:44:24;21.55;;;13.00;;
17864;SDS011;9058;52.018;4.202;2022-11-15T04:46:51;21.92;;;13.88;;
17864;SDS011;9058;52.018;4.202;2022-11-15T04:49:17;23.75;;;13.38;;
17864;SDS011;9058;52.018;4.202;2022-11-15T04:51:43;20.17;;;11.52;;
17864;SDS011;9058;52.018;4.202;2022-11-15T04:54:10;22.77;;;13.52;;
17864;SDS011;9058;52.018;4.202;2022-11-15T04:56:36;21.77;;;11.80;;
17864;SDS011;9058;52.018;4.202;2022-11-15T04:59:04;19.42;;;11.63;;
17864;SDS011;9058;52.018;4.202;2022-11-15T05:01:31;19.00;;;11.70;;
17864;SDS011;9058;52.018;4.202;2022-11-15T05:03:57;22.17;;;12.50;;
17864;SDS011;9058;52.018;4.202;2022-11-15T05:06:41;23.38;;;12.63;;
17864;SDS011;9058;52.018;4.202;2022-11-15T05:09:07;19.27;;;11.10;;
17864;SDS011;9058;52.018;4.202;2022-11-15T05:11:34;21.23;;;12.68;;
17864;SDS011;9058;52.018;4.202;2022-11-15T05:14:01;17.50;;;10.57;;
17864;SDS011;9058;52.018;4.202;2022-11-15T05:16:28;20.05;;;12.32;;
17864;SDS011;9058;52.018;4.202;2022-11-15T05:18:55;23.80;;;11.50;;
17864;SDS011;9058;52.018;4.202;2022-11-15T05:21:21;20.98;;;11.88;;
17864;SDS011;9058;52.018;4.202;2022-11-15T05:23:48;26.63;;;11.60;;
17864;SDS011;9058;52.018;4.202;2022-11-15T05:26:14;16.33;;;11.32;;
17864;SDS011;9058;52.018;4.202;2022-11-15T05:28:42;20.02;;;11.77;;
17864;SDS011;9058;52.018;4.202;2022-11-15T05:31:09;16.55;;;11.02;;
17864;SDS011;9058;52.018;4.202;2022-11-15T05:33:37;17.17;;;10.35;;
17864;SDS011;9058;52.018;4.202;2022-11-15T05:36:04;15.20;;;11.00;;
17864;SDS011;9058;52.018;4.202;2022-11-15T05:38:32;13.52;;;9.55;;
17864;SDS011;9058;52.018;4.202;2022-11-15T05:40:59;14.90;;;9.63;;
17864;SDS011;9058;52.018;4.202;2022-11-15T05:43:25;14.57;;;8.98;;
17864;SDS011;9058;52.018;4.202;2022-11-15T05:45:52;14.13;;;9.02;;
17864;SDS011;9058;52.018;4.202;2022-11-15T05:48:18;14.20;;;10.00;;
17864;SDS011;9058;52.018;4.202;2022-11-15T05:50:46;15.60;;;8.93;;
17864;SDS011;9058;52.018;4.202;2022-11-15T05:53:14;20.98;;;9.10;;
17864;SDS011;9058;52.018;4.202;2022-11-15T05:55:40;14.70;;;8.93;;
17864;SDS011;9058;52.018;4.202;2022-11-15T05:58:07;14.50;;;8.25;;
17864;SDS011;9058;52.018;4.202;2022-11-15T06:00:33;13.40;;;7.95;;
17864;SDS011;9058;52.018;4.202;2022-11-15T06:03:00;12.15;;;7.00;;
17864;SDS011;9058;52.018;4.202;2022-11-15T06:05:26;14.55;;;6.90;;
17864;SDS011;9058;52.018;4.202;2022-11-15T06:07:56;11.02;;;7.47;;
17864;SDS011;9058;52.018;4.202;2022-11-15T06:10:23;13.45;;;7.50;;
17864;SDS011;9058;52.018;4.202;2022-11-15T06:12:55;14.00;;;7.63;;
17864;SDS011;9058;52.018;4.202;2022-11-15T06:15:22;10.80;;;6.80;;
17864;SDS011;9058;52.018;4.202;2022-11-15T06:17:48;14.93;;;7.13;;
17864;SDS011;9058;52.018;4.202;2022-11-15T06:20:14;11.57;;;6.82;;
17864;SDS011;9058;52.018;4.202;2022-11-15T06:22:41;12.75;;;5.47;;
17864;SDS011;9058;52.018;4.202;2022-11-15T06:25:09;10.48;;;5.40;;
17864;SDS011;9058;52.018;4.202;2022-11-15T06:27:35;11.50;;;5.63;;
17864;SDS011;9058;52.018;4.202;2022-11-15T06:30:02;7.78;;;4.95;;
17864;SDS011;9058;52.018;4.202;2022-11-15T06:32:28;10.90;;;4.72;;
17864;SDS011;9058;52.018;4.202;2022-11-15T06:34:55;10.93;;;5.47;;
17864;SDS011;9058;52.018;4.202;2022-11-15T06:37:21;10.32;;;4.97;;
17864;SDS011;9058;52.018;4.202;2022-11-15T06:39:47;10.15;;;5.22;;
17864;SDS011;9058;52.018;4.202;2022-11-15T06:42:15;11.57;;;6.18;;
17864;SDS011;9058;52.018;4.202;2022-11-15T06:44:41;10.05;;;4.90;;
17864;SDS011;9058;52.018;4.202;2022-11-15T06:47:08;10.40;;;4.93;;
17864;SDS011;9058;52.018;4.202;2022-11-15T06:49:34;11.70;;;4.72;;
17864;SDS011;9058;52.018;4.202;2022-11-15T06:52:00;8.73;;;4.63;;
17864;SDS011;9058;52.018;4.202;2022-11-15T06:54:27;9.88;;;5.20;;
17864;SDS011;9058;52.018;4.202;2022-11-15T06:56:53;9.80;;;4.80;;
17864;SDS011;9058;52.018;4.202;2022-11-15T06:59:21;9.07;;;4.68;;
17864;SDS011;9058;52.018;4.202;2022-11-15T07:01:47;10.20;;;5.72;;
17864;SDS011;9058;52.018;4.202;2022-11-15T07:04:15;9.45;;;4.30;;
17864;SDS011;9058;52.018;4.202;2022-11-15T07:06:42;9.57;;;5.30;;
17864;SDS011;9058;52.018;4.202;2022-11-15T07:09:09;18.77;;;4.60;;
17864;SDS011;9058;52.018;4.202;2022-11-15T07:11:38;10.75;;;5.85;;
17864;SDS011;9058;52.018;4.202;2022-11-15T07:14:04;7.72;;;5.72;;
17864;SDS011;9058;52.018;4.202;2022-11-15T07:16:33;10.18;;;5.22;;
17864;SDS011;9058;52.018;4.202;2022-11-15T07:18:59;12.48;;;6.13;;
17864;SDS011;9058;52.018;4.202;2022-11-15T07:21:25;10.50;;;5.88;;
17864;SDS011;9058;52.018;4.202;2022-11-15T07:23:52;10.35;;;5.60;;
17864;SDS011;9058;52.018;4.202;2022-11-15T07:26:19;14.15;;;6.38;;
17864;SDS011;9058;52.018;4.202;2022-11-15T07:28:45;9.65;;;5.88;;
17864;SDS011;9058;52.018;4.202;2022-11-15T07:31:11;10.07;;;6.10;;
17864;SDS011;9058;52.018;4.202;2022-11-15T07:33:40;10.23;;;7.03;;
17864;SDS011;9058;52.018;4.202;2022-11-15T07:36:06;14.13;;;6.35;;
17864;SDS011;9058;52.018;4.202;2022-11-15T07:38:34;10.02;;;6.43;;
17864;SDS011;9058;52.018;4.202;2022-11-15T07:41:01;11.85;;;6.07;;
17864;SDS011;9058;52.018;4.202;2022-11-15T07:43:28;10.50;;;5.60;;
17864;SDS011;9058;52.018;4.202;2022-11-15T07:45:55;9.13;;;5.97;;
17864;SDS011;9058;52.018;4.202;2022-11-15T07:48:22;10.75;;;5.85;;
17864;SDS011;9058;52.018;4.202;2022-11-15T07:50:50;12.70;;;6.40;;
17864;SDS011;9058;52.018;4.202;2022-11-15T07:53:16;12.90;;;6.53;;
17864;SDS011;9058;52.018;4.202;2022-11-15T07:55:42;11.13;;;6.72;;
17864;SDS011;9058;52.018;4.202;2022-11-15T07:58:10;10.93;;;5.40;;
17864;SDS011;9058;52.018;4.202;2022-11-15T08:00:38;9.25;;;5.70;;
17864;SDS011;9058;52.018;4.202;2022-11-15T08:03:04;11.00;;;5.93;;
17864;SDS011;9058;52.018;4.202;2022-11-15T08:05:31;9.32;;;5.88;;
17864;SDS011;9058;52.018;4.202;2022-11-15T08:07:59;11.07;;;6.28;;
17864;SDS011;9058;52.018;4.202;2022-11-15T08:10:26;12.68;;;6.00;;
17864;SDS011;9058;52.018;4.202;2022-11-15T08:12:56;10.40;;;5.90;;
17864;SDS011;9058;52.018;4.202;2022-11-15T08:15:23;9.77;;;6.47;;
17864;SDS011;9058;52.018;4.202;2022-11-15T08:17:52;11.32;;;5.68;;
17864;SDS011;9058;52.018;4.202;2022-11-15T08:20:19;6.40;;;5.70;;
17864;SDS011;9058;52.018;4.202;2022-11-15T08:22:45;9.15;;;5.90;;
17864;SDS011;9058;52.018;4.202;2022-11-15T08:25:13;12.00;;;6.60;;
17864;SDS011;9058;52.018;4.202;2022-11-15T08:27:39;8.63;;;6.55;;
17864;SDS011;9058;52.018;4.202;2022-11-15T08:30:06;7.50;;;6.32;;
17864;SDS011;9058;52.018;4.202;2022-11-15T08:32:32;8.13;;;5.82;;
17864;SDS011;9058;52.018;4.202;2022-11-15T08:34:59;9.02;;;6.13;;
17864;SDS011;9058;52.018;4.202;2022-11-15T08:37:25;12.82;;;7.15;;
17864;SDS011;9058;52.018;4.202;2022-11-15T08:39:51;7.97;;;6.10;;
17864;SDS011;9058;52.018;4.202;2022-11-15T08:42:19;11.80;;;5.82;;
17864;SDS011;9058;52.018;4.202;2022-11-15T08:44:45;6.90;;;5.25;;
17864;SDS011;9058;52.018;4.202;2022-11-15T08:47:11;7.35;;;4.60;;
17864;SDS011;9058;52.018;4.202;2022-11-15T08:49:38;7.00;;;5.07;;
17864;SDS011;9058;52.018;4.202;2022-11-15T08:52:05;8.43;;;4.85;;
17864;SDS011;9058;52.018;4.202;2022-11-15T08:54:31;7.00;;;4.03;;
17864;SDS011;9058;52.018;4.202;2022-11-15T08:56:57;5.68;;;4.30;;
17864;SDS011;9058;52.018;4.202;2022-11-15T08:59:25;6.80;;;3.72;;
17864;SDS011;9058;52.018;4.202;2022-11-15T09:01:51;4.88;;;3.95;;
17864;SDS011;9058;52.018;4.202;2022-11-15T09:04:18;6.78;;;3.83;;
17864;SDS011;9058;52.018;4.202;2022-11-15T09:06:44;5.47;;;3.80;;
17864;SDS011;9058;52.018;4.202;2022-11-15T09:09:10;7.97;;;4.15;;
17864;SDS011;9058;52.018;4.202;2022-11-15T09:11:37;8.48;;;4.07;;
17864;SDS011;9058;52.018;4.202;2022-11-15T09:14:04;8.65;;;4.75;;
17864;SDS011;9058;52.018;4.202;2022-11-15T09:16:31;6.38;;;4.60;;
17864;SDS011;9058;52.018;4.202;2022-11-15T09:18:58;7.35;;;4.57;;
17864;SDS011;9058;52.018;4.202;2022-11-15T09:21:24;7.00;;;4.68;;
17864;SDS011;9058;52.018;4.202;2022-11-15T09:23:50;6.93;;;4.82;;
17864;SDS011;9058;52.018;4.202;2022-11-15T09:26:18;8.23;;;4.85;;
17864;SDS011;9058;52.018;4.202;2022-11-15T09:28:44;9.35;;;5.35;;
17864;SDS011;9058;52.018;4.202;2022-11-15T09:31:10;8.70;;;5.07;;
17864;SDS011;9058;52.018;4.202;2022-11-15T09:33:38;9.43;;;4.97;;
17864;SDS011;9058;52.018;4.202;2022-11-15T09:36:05;7.53;;;4.63;;
17864;SDS011;9058;52.018;4.202;2022-11-15T09:38:32;7.32;;;4.82;;
17864;SDS011;9058;52.018;4.202;2022-11-15T09:41:09;7.43;;;5.22;;
17864;SDS011;9058;52.018;4.202;2022-11-15T09:43:41;10.80;;;5.20;;
17864;SDS011;9058;52.018;4.202;2022-11-15T09:46:15;8.48;;;5.35;;
17864;SDS011;9058;52.018;4.202;2022-11-15T09:48:48;8.52;;;4.60;;
17864;SDS011;9058;52.018;4.202;2022-11-15T09:51:18;5.43;;;4.07;;
17864;SDS011;9058;52.018;4.202;2022-11-15T09:53:47;10.10;;;5.13;;
17864;SDS011;9058;52.018;4.202;2022-11-15T09:56:16;7.05;;;4.68;;
17864;SDS011;9058;52.018;4.202;2022-11-15T09:58:46;7.43;;;4.82;;
17864;SDS011;9058;52.018;4.202;2022-11-15T10:01:16;8.57;;;5.03;;
17864;SDS011;9058;52.018;4.202;2022-11-15T10:03:43;7.88;;;5.03;;
17864;SDS011;9058;52.018;4.202;2022-11-15T10:06:14;10.88;;;4.63;;
17864;SDS011;9058;52.018;4.202;2022-11-15T10:08:46;8.70;;;4.82;;
17864;SDS011;9058;52.018;4.202;2022-11-15T10:11:15;11.50;;;5.75;;
17864;SDS011;9058;52.018;4.202;2022-11-15T10:13:44;7.63;;;4.80;;
17864;SDS011;9058;52.018;4.202;2022-11-15T10:16:15;8.68;;;4.32;;
17864;SDS011;9058;52.018;4.202;2022-11-15T10:18:44;9.05;;;4.13;;
17864;SDS011;9058;52.018;4.202;2022-11-15T10:21:15;7.55;;;4.30;;
17864;SDS011;9058;52.018;4.202;2022-11-15T10:23:43;12.27;;;5.00;;
17864;SDS011;9058;52.018;4.202;2022-11-15T10:26:10;9.50;;;4.72;;
17864;SDS011;9058;52.018;4.202;2022-11-15T10:28:37;4.85;;;4.25;;
17864;SDS011;9058;52.018;4.202;2022-11-15T10:31:10;8.02;;;4.30;;
17864;SDS011;9058;52.018;4.202;2022-11-15T10:33:46;8.55;;;4.05;;
17864;SDS011;9058;52.018;4.202;2022-11-15T10:36:21;10.25;;;4.82;;
17864;SDS011;9058;52.018;4.202;2022-11-15T10:38:53;8.20;;;4.30;;
17864;SDS011;9058;52.018;4.202;2022-11-15T10:41:21;5.88;;;3.60;;
17864;SDS011;9058;52.018;4.202;2022-11-15T10:44:02;6.88;;;3.90;;
17864;SDS011;9058;52.018;4.202;2022-11-15T10:46:29;5.60;;;3.95;;
17864;SDS011;9058;52.018;4.202;2022-11-15T10:48:58;4.30;;;3.30;;
17864;SDS011;9058;52.018;4.202;2022-11-15T10:51:40;10.52;;;4.05;;
17864;SDS011;9058;52.018;4.202;2022-11-15T10:54:07;7.32;;;3.80;;
17864;SDS011;9058;52.018;4.202;2022-11-15T10:56:36;7.70;;;3.67;;
17864;SDS011;9058;52.018;4.202;2022-11-15T10:59:02;8.68;;;2.90;;
17864;SDS011;9058;52.018;4.202;2022-11-15T11:01:29;5.53;;;2.65;;
17864;SDS011;9058;52.018;4.202;2022-11-15T11:04:02;7.28;;;2.60;;
17864;SDS011;9058;52.018;4.202;2022-11-15T11:06:28;5.38;;;3.03;;
17864;SDS011;9058;52.018;4.202;2022-11-15T11:08:57;8.98;;;3.05;;
17864;SDS011;9058;52.018;4.202;2022-11-15T11:11:23;9.43;;;2.92;;
17864;SDS011;9058;52.018;4.202;2022-11-15T11:13:50;5.03;;;2.20;;
17864;SDS011;9058;52.018;4.202;2022-11-15T11:16:20;9.90;;;2.63;;
17864;SDS011;9058;52.018;4.202;2022-11-15T11:18:49;5.90;;;2.50;;
17864;SDS011;9058;52.018;4.202;2022-11-15T11:21:19;3.78;;;2.40;;
17864;SDS011;9058;52.018;4.202;2022-11-15T11:23:50;7.38;;;2.50;;
17864;SDS011;9058;52.018;4.202;2022-11-15T11:26:24;6.70;;;2.53;;
17864;SDS011;9058;52.018;4.202;2022-11-15T11:28:54;5.40;;;2.70;;
17864;SDS011;9058;52.018;4.202;2022-11-15T11:31:25;7.57;;;2.78;;
17864;SDS011;9058;52.018;4.202;2022-11-15T11:33:57;9.82;;;2.88;;
17864;SDS011;9058;52.018;4.202;2022-11-15T11:36:26;5.95;;;2.20;;
17864;SDS011;9058;52.018;4.202;2022-11-15T11:38:56;6.97;;;2.15;;
17864;SDS011;9058;52.018;4.202;2022-11-15T11:41:30;5.97;;;1.90;;
17864;SDS011;9058;52.018;4.202;2022-11-15T11:44:06;5.93;;;2.65;;
17864;SDS011;9058;52.018;4.202;2022-11-15T11:46:38;6.55;;;2.20;;
17864;SDS011;9058;52.018;4.202;2022-11-15T11:49:10;7.50;;;2.00;;
17864;SDS011;9058;52.018;4.202;2022-11-15T11:51:39;7.05;;;2.03;;
17864;SDS011;9058;52.018;4.202;2022-11-15T11:54:10;6.22;;;2.15;;
17864;SDS011;9058;52.018;4.202;2022-11-15T11:56:39;5.88;;;1.83;;
17864;SDS011;9058;52.018;4.202;2022-11-15T11:59:07;2.08;;;1.77;;
17864;SDS011;9058;52.018;4.202;2022-11-15T12:01:37;7.03;;;2.38;;
17864;SDS011;9058;52.018;4.202;2022-11-15T12:04:09;3.92;;;1.75;;
17864;SDS011;9058;52.018;4.202;2022-11-15T12:06:38;5.80;;;1.80;;
17864;SDS011;9058;52.018;4.202;2022-11-15T12:09:11;7.22;;;1.80;;
17864;SDS011;9058;52.018;4.202;2022-11-15T12:11:42;3.38;;;1.38;;
17864;SDS011;9058;52.018;4.202;2022-11-15T12:14:11;5.68;;;1.77;;
17864;SDS011;9058;52.018;4.202;2022-11-15T12:16:39;9.27;;;1.73;;
17864;SDS011;9058;52.018;4.202;2022-11-15T12:19:08;4.75;;;1.80;;
17864;SDS011;9058;52.018;4.202;2022-11-15T12:21:36;5.50;;;1.30;;
17864;SDS011;9058;52.018;4.202;2022-11-15T12:24:04;5.05;;;1.67;;
17864;SDS011;9058;52.018;4.202;2022-11-15T12:26:33;2.88;;;1.60;;
17864;SDS011;9058;52.018;4.202;2022-11-15T12:29:03;6.65;;;1.85;;
17864;SDS011;9058;52.018;4.202;2022-11-15T12:31:34;6.53;;;1.90;;
17864;SDS011;9058;52.018;4.202;2022-11-15T12:34:02;7.38;;;1.85;;
17864;SDS011;9058;52.018;4.202;2022-11-15T12:36:30;7.28;;;1.60;;
17864;SDS011;9058;52.018;4.202;2022-11-15T12:38:59;3.45;;;1.42;;
17864;SDS011;9058;52.018;4.202;2022-11-15T12:41:25;5.03;;;1.55;;
17864;SDS011;9058;52.018;4.202;2022-11-15T12:43:52;6.30;;;1.58;;
17864;SDS011;9058;52.018;4.202;2022-11-15T12:46:21;6.05;;;1.30;;
17864;SDS011;9058;52.018;4.202;2022-11-15T12:48:50;3.38;;;1.25;;
17864;SDS011;9058;52.018;4.202;2022-11-15T12:51:18;2.95;;;1.08;;
17864;SDS011;9058;52.018;4.202;2022-11-15T12:53:45;3.13;;;1.35;;
17864;SDS011;9058;52.018;4.202;2022-11-15T12:56:19;5.85;;;1.58;;
17864;SDS011;9058;52.018;4.202;2022-11-15T12:58:47;4.45;;;1.30;;
17864;SDS011;9058;52.018;4.202;2022-11-15T13:04:08;8.88;;;1.67;;
17864;SDS011;9058;52.018;4.202;2022-11-15T13:06:39;3.80;;;1.10;;
17864;SDS011;9058;52.018;4.202;2022-11-15T13:11:48;3.15;;;1.40;;
17864;SDS011;9058;52.018;4.202;2022-11-15T13:17:00;3.33;;;1.02;;
17864;SDS011;9058;52.018;4.202;2022-11-15T13:19:29;3.60;;;0.98;;
17864;SDS011;9058;52.018;4.202;2022-11-15T13:21:56;3.72;;;1.70;;
17864;SDS011;9058;52.018;4.202;2022-11-15T13:24:39;3.08;;;1.10;;
17864;SDS011;9058;52.018;4.202;2022-11-15T13:27:09;4.45;;;1.00;;
17864;SDS011;9058;52.018;4.202;2022-11-15T13:29:36;4.07;;;1.30;;
17864;SDS011;9058;52.018;4.202;2022-11-15T13:32:03;2.85;;;1.10;;
17864;SDS011;9058;52.018;4.202;2022-11-15T13:34:31;4.15;;;0.95;;
17864;SDS011;9058;52.018;4.202;2022-11-15T13:36:58;3.28;;;1.00;;
17864;SDS011;9058;52.018;4.202;2022-11-15T13:39:28;4.18;;;1.27;;
17864;SDS011;9058;52.018;4.202;2022-11-15T13:41:54;3.33;;;1.45;;
17864;SDS011;9058;52.018;4.202;2022-11-15T13:44:21;5.78;;;0.95;;
17864;SDS011;9058;52.018;4.202;2022-11-15T13:46:48;3.10;;;1.20;;
17864;SDS011;9058;52.018;4.202;2022-11-15T13:49:14;3.17;;;0.95;;
17864;SDS011;9058;52.018;4.202;2022-11-15T13:51:44;2.53;;;0.80;;
17864;SDS011;9058;52.018;4.202;2022-11-15T13:54:14;2.13;;;0.90;;
17864;SDS011;9058;52.018;4.202;2022-11-15T13:56:42;3.70;;;1.13;;
17864;SDS011;9058;52.018;4.202;2022-11-15T13:59:10;3.15;;;1.38;;
17864;SDS011;9058;52.018;4.202;2022-11-15T14:01:37;5.25;;;1.23;;
17864;SDS011;9058;52.018;4.202;2022-11-15T14:04:09;9.80;;;2.15;;
17864;SDS011;9058;52.018;4.202;2022-11-15T14:06:42;3.03;;;1.20;;
17864;SDS011;9058;52.018;4.202;2022-11-15T14:09:30;3.15;;;1.23;;
17864;SDS011;9058;52.018;4.202;2022-11-15T14:11:58;4.15;;;1.23;;
17864;SDS011;9058;52.018;4.202;2022-11-15T14:14:24;3.88;;;1.35;;
17864;SDS011;9058;52.018;4.202;2022-11-15T14:16:52;7.18;;;1.65;;
17864;SDS011;9058;52.018;4.202;2022-11-15T14:19:35;4.00;;;1.00;;
17864;SDS011;9058;52.018;4.202;2022-11-15T14:22:08;4.13;;;1.33;;
17864;SDS011;9058;52.018;4.202;2022-11-15T14:24:36;10.85;;;1.73;;
17864;SDS011;9058;52.018;4.202;2022-11-15T14:27:17;1.60;;;1.23;;
17864;SDS011;9058;52.018;4.202;2022-11-15T14:29:43;10.57;;;1.48;;
17864;SDS011;9058;52.018;4.202;2022-11-15T14:32:11;4.47;;;1.33;;
17864;SDS011;9058;52.018;4.202;2022-11-15T14:34:38;5.68;;;1.13;;
17864;SDS011;9058;52.018;4.202;2022-11-15T14:37:04;3.60;;;1.33;;
17864;SDS011;9058;52.018;4.202;2022-11-15T14:39:31;6.93;;;2.20;;
17864;SDS011;9058;52.018;4.202;2022-11-15T14:41:58;4.45;;;1.35;;
17864;SDS011;9058;52.018;4.202;2022-11-15T14:44:25;5.85;;;1.35;;
17864;SDS011;9058;52.018;4.202;2022-11-15T14:46:51;3.22;;;1.20;;
17864;SDS011;9058;52.018;4.202;2022-11-15T14:49:17;4.28;;;1.60;;
17864;SDS011;9058;52.018;4.202;2022-11-15T14:51:44;2.30;;;0.93;;
17864;SDS011;9058;52.018;4.202;2022-11-15T14:54:10;4.32;;;1.27;;
17864;SDS011;9058;52.018;4.202;2022-11-15T14:56:37;4.40;;;1.63;;
17864;SDS011;9058;52.018;4.202;2022-11-15T14:59:05;2.22;;;1.20;;
17864;SDS011;9058;52.018;4.202;2022-11-15T15:01:31;3.25;;;0.90;;
17864;SDS011;9058;52.018;4.202;2022-11-15T15:03:58;4.00;;;1.30;;